MST,Max TemperatureF,Mean TemperatureF,Min TemperatureF,Max Dew PointF,MeanDew PointF,Min DewpointF,Max Humidity, Mean Humidity, Min Humidity, Max Sea Level PressureIn, Mean Sea Level PressureIn, Min Sea Level PressureIn, Max VisibilityMiles, Mean VisibilityMiles, Min VisibilityMiles, Max Wind SpeedMPH, Mean Wind SpeedMPH, Max Gust SpeedMPH,PrecipitationIn, CloudCover, Events, WindDirDegrees
2013-6-1,105,87,69,38,33,24,29,18,6,29.77,29.70,29.61,10,10,10,15,6,19,0.00,0,,217
2013-6-2,107,91,74,40,34,25,25,16,6,29.73,29.66,29.59,10,10,10,21,6,28,0.00,0,,197
2013-6-3,102,89,75,36,26,12,23,14,4,29.76,29.71,29.65,10,10,10,20,8,30,0.00,0,,224
2013-6-4,102,88,73,41,32,22,25,16,6,29.79,29.74,29.69,10,10,10,20,8,26,0.00,0,,207
2013-6-5,101,86,71,34,23,9,22,13,4,29.82,29.76,29.68,10,10,10,18,6,24,0.00,0,,247
2013-6-6,104,86,68,27,24,21,18,12,6,29.76,29.70,29.62,10,10,10,17,7,23,0.00,0,,258
2013-6-7,107,90,72,27,23,16,17,11,4,29.73,29.65,29.56,10,10,10,17,6,25,0.00,0,,220
2013-6-8,105,88,71,37,23,11,17,10,3,29.77,29.71,29.66,10,10,10,21,8,27,0.00,0,,254
2013-6-9,105,89,72,36,26,12,25,15,4,29.84,29.77,29.70,10,10,10,16,6,23,0.00,0,,265
2013-6-10,107,90,73,35,26,12,23,13,3,29.83,29.76,29.69,10,10,10,16,7,21,0.00,0,,240
2013-6-11,108,91,74,31,22,3,19,11,3,29.82,29.77,29.70,10,10,10,20,8,24,0.00,0,,301
2013-6-12,108,92,75,37,28,25,16,11,5,29.86,29.78,29.71,10,10,10,20,9,27,0.00,0,,288
2013-6-13,104,90,76,51,42,34,29,19,9,29.86,29.78,29.68,10,10,10,18,8,33,0.00,0,,297
2013-6-14,103,90,77,54,47,41,37,25,13,29.86,29.75,29.64,10,10,10,17,7,22,0.00,0,Thunderstorm,287
2013-6-15,103,91,78,55,50,43,37,26,14,29.91,29.78,29.70,10,10,10,18,6,27,0.00,1,Thunderstorm,148
2013-6-16,107,92,76,54,40,25,46,27,7,29.89,29.80,29.72,10,10,10,18,7,32,0.00,0,,252
2013-6-17,105,89,73,29,24,16,19,12,4,29.86,29.79,29.70,10,10,10,15,6,20,0.00,0,,229
2013-6-18,106,89,72,23,7,-28,14,8,1,29.79,29.72,29.65,10,10,10,20,7,25,0.00,0,,192
2013-6-19,106,89,71,32,16,1,15,9,2,29.87,29.67,29.60,10,10,10,22,9,27,0.00,0,,214
2013-6-20,105,89,72,34,15,-2,21,12,2,29.76,29.71,29.65,10,10,10,21,7,27,0.00,0,,202
2013-6-21,105,88,71,36,23,4,23,13,2,29.80,29.74,29.67,10,10,10,23,10,30,0.00,0,,192
2013-6-22,104,88,71,31,21,7,22,13,3,29.80,29.73,29.65,10,10,10,23,9,32,0.00,0,,216
2013-6-23,103,88,72,32,22,8,19,11,3,29.83,29.70,29.62,10,10,10,24,11,32,0.00,0,,197
2013-6-24,103,88,72,33,22,9,17,10,3,29.86,29.74,29.68,10,10,10,24,11,33,0.00,0,,213
2013-6-25,104,87,70,39,20,2,26,14,2,29.87,29.82,29.75,10,10,10,16,6,20,0.00,0,,193
2013-6-26,104,88,71,26,19,9,16,10,3,29.95,29.89,29.82,10,10,10,15,6,21,0.00,0,,254
2013-6-27,106,91,75,43,33,26,29,18,6,29.98,29.90,29.82,10,10,10,21,8,27,0.00,0,,302
2013-6-28,110,94,77,37,32,27,19,13,6,29.90,29.79,29.70,10,10,10,16,6,20,0.00,0,,305
2013-6-29,112,98,84,48,34,28,15,11,6,30.18,29.81,29.63,10,10,10,23,8,34,0.00,0,,146
2013-6-30,111,95,79,64,50,38,54,32,9,30.21,29.85,29.58,10,9,1,43,11,67,0.03,1,Rain-Thunderstorm,193